sensor_id;sensor_type;location;lat;lon;timestamp;P1;durP1;ratioP1;P2;durP2;ratioP2
35496;SDS011;21609;49.298;6.844;2023-04-25T00:02:15;0.90;;;0.90;;
35496;SDS011;21609;49.298;6.844;2023-04-25T00:04:41;0.90;;;0.90;;
35496;SDS011;21609;49.298;6.844;2023-04-25T00:07:06;0.80;;;0.80;;
35496;SDS011;21609;49.298;6.844;2023-04-25T00:09:32;1.17;;;1.08;;
35496;SDS011;21609;49.298;6.844;2023-04-25T00:11:58;1.48;;;1.17;;
35496;SDS011;21609;49.298;6.844;2023-04-25T00:14:23;1.10;;;1.00;;
35496;SDS011;21609;49.298;6.844;2023-04-25T00:16:49;0.80;;;0.80;;
35496;SDS011;21609;49.298;6.844;2023-04-25T00:19:16;1.27;;;1.17;;
35496;SDS011;21609;49.298;6.844;2023-04-25T00:21:42;1.20;;;1.10;;
35496;SDS011;21609;49.298;6.844;2023-04-25T00:24:11;1.13;;;1.02;;
35496;SDS011;21609;49.298;6.844;2023-04-25T00:26:37;1.13;;;1.02;;
35496;SDS011;21609;49.298;6.844;2023-04-25T00:29:02;0.98;;;0.98;;
35496;SDS011;21609;49.298;6.844;2023-04-25T00:31:28;1.35;;;1.00;;
35496;SDS011;21609;49.298;6.844;2023-04-25T00:33:54;1.25;;;0.95;;
35496;SDS011;21609;49.298;6.844;2023-04-25T00:36:20;0.98;;;0.95;;
35496;SDS011;21609;49.298;6.844;2023-04-25T00:38:45;0.63;;;0.63;;
35496;SDS011;21609;49.298;6.844;2023-04-25T00:41:11;0.93;;;0.90;;
35496;SDS011;21609;49.298;6.844;2023-04-25T00:43:40;0.98;;;0.80;;
35496;SDS011;21609;49.298;6.844;2023-04-25T00:46:06;0.93;;;0.93;;
35496;SDS011;21609;49.298;6.844;2023-04-25T00:48:32;1.95;;;0.80;;
35496;SDS011;21609;49.298;6.844;2023-04-25T00:50:58;1.27;;;1.17;;
35496;SDS011;21609;49.298;6.844;2023-04-25T00:53:25;1.67;;;1.30;;
35496;SDS011;21609;49.298;6.844;2023-04-25T00:55:52;0.90;;;0.90;;
35496;SDS011;21609;49.298;6.844;2023-04-25T00:58:18;0.90;;;0.90;;
35496;SDS011;21609;49.298;6.844;2023-04-25T01:00:46;0.70;;;0.70;;
35496;SDS011;21609;49.298;6.844;2023-04-25T01:03:13;0.80;;;0.80;;
35496;SDS011;21609;49.298;6.844;2023-04-25T01:05:41;0.70;;;0.70;;
35496;SDS011;21609;49.298;6.844;2023-04-25T01:08:07;0.90;;;0.90;;
35496;SDS011;21609;49.298;6.844;2023-04-25T01:10:33;1.13;;;1.02;;
35496;SDS011;21609;49.298;6.844;2023-04-25T01:12:59;0.80;;;0.80;;
35496;SDS011;21609;49.298;6.844;2023-04-25T01:15:25;0.80;;;0.80;;
35496;SDS011;21609;49.298;6.844;2023-04-25T01:17:50;1.05;;;0.95;;
35496;SDS011;21609;49.298;6.844;2023-04-25T01:20:16;0.70;;;0.70;;
35496;SDS011;21609;49.298;6.844;2023-04-25T01:22:42;0.73;;;0.73;;
35496;SDS011;21609;49.298;6.844;2023-04-25T01:25:08;0.90;;;0.90;;
35496;SDS011;21609;49.298;6.844;2023-04-25T01:27:35;1.30;;;1.20;;
35496;SDS011;21609;49.298;6.844;2023-04-25T01:30:02;1.10;;;1.00;;
35496;SDS011;21609;49.298;6.844;2023-04-25T01:32:28;1.13;;;1.02;;
35496;SDS011;21609;49.298;6.844;2023-04-25T01:35:02;0.93;;;0.88;;
35496;SDS011;21609;49.298;6.844;2023-04-25T01:37:35;1.25;;;1.00;;
35496;SDS011;21609;49.298;6.844;2023-04-25T01:40:02;1.95;;;0.82;;
35496;SDS011;21609;49.298;6.844;2023-04-25T01:42:30;0.70;;;0.70;;
35496;SDS011;21609;49.298;6.844;2023-04-25T01:44:56;1.05;;;0.95;;
35496;SDS011;21609;49.298;6.844;2023-04-25T01:47:22;0.80;;;0.80;;
35496;SDS011;21609;49.298;6.844;2023-04-25T01:49:48;0.70;;;0.70;;
35496;SDS011;21609;49.298;6.844;2023-04-25T01:52:13;0.60;;;0.60;;
35496;SDS011;21609;49.298;6.844;2023-04-25T01:54:39;0.73;;;0.70;;
35496;SDS011;21609;49.298;6.844;2023-04-25T01:57:08;0.83;;;0.83;;
35496;SDS011;21609;49.298;6.844;2023-04-25T01:59:35;1.00;;;1.00;;
35496;SDS011;21609;49.298;6.844;2023-04-25T02:02:01;1.00;;;1.00;;
35496;SDS011;21609;49.298;6.844;2023-04-25T02:04:28;0.60;;;0.60;;
35496;SDS011;21609;49.298;6.844;2023-04-25T02:06:54;0.80;;;0.80;;
35496;SDS011;21609;49.298;6.844;2023-04-25T02:09:20;1.30;;;0.80;;
35496;SDS011;21609;49.298;6.844;2023-04-25T02:11:46;1.00;;;1.00;;
35496;SDS011;21609;49.298;6.844;2023-04-25T02:14:11;0.70;;;0.70;;
35496;SDS011;21609;49.298;6.844;2023-04-25T02:16:37;0.73;;;0.70;;
35496;SDS011;21609;49.298;6.844;2023-04-25T02:19:03;0.68;;;0.68;;
35496;SDS011;21609;49.298;6.844;2023-04-25T02:21:29;0.98;;;0.70;;
35496;SDS011;21609;49.298;6.844;2023-04-25T02:23:55;0.60;;;0.60;;
35496;SDS011;21609;49.298;6.844;2023-04-25T02:26:21;0.73;;;0.73;;
35496;SDS011;21609;49.298;6.844;2023-04-25T02:28:48;1.10;;;1.00;;
35496;SDS011;21609;49.298;6.844;2023-04-25T02:31:14;0.85;;;0.85;;
35496;SDS011;21609;49.298;6.844;2023-04-25T02:33:40;0.80;;;0.80;;
35496;SDS011;21609;49.298;6.844;2023-04-25T02:36:06;1.58;;;0.95;;
35496;SDS011;21609;49.298;6.844;2023-04-25T02:38:32;0.63;;;0.63;;
35496;SDS011;21609;49.298;6.844;2023-04-25T02:40:57;1.08;;;1.00;;
35496;SDS011;21609;49.298;6.844;2023-04-25T02:43:23;0.68;;;0.68;;
35496;SDS011;21609;49.298;6.844;2023-04-25T02:45:49;0.90;;;0.90;;
35496;SDS011;21609;49.298;6.844;2023-04-25T02:48:14;0.75;;;0.63;;
35496;SDS011;21609;49.298;6.844;2023-04-25T02:50:40;0.63;;;0.63;;
35496;SDS011;21609;49.298;6.844;2023-04-25T02:53:05;0.68;;;0.68;;
35496;SDS011;21609;49.298;6.844;2023-04-25T02:55:31;2.10;;;1.10;;
35496;SDS011;21609;49.298;6.844;2023-04-25T02:57:56;1.35;;;0.77;;
35496;SDS011;21609;49.298;6.844;2023-04-25T03:00:22;1.10;;;1.00;;
35496;SDS011;21609;49.298;6.844;2023-04-25T03:02:48;0.88;;;0.88;;
35496;SDS011;21609;49.298;6.844;2023-04-25T03:05:14;0.80;;;0.80;;
35496;SDS011;21609;49.298;6.844;2023-04-25T03:07:39;1.02;;;0.88;;
35496;SDS011;21609;49.298;6.844;2023-04-25T03:10:08;3.08;;;0.90;;
35496;SDS011;21609;49.298;6.844;2023-04-25T03:12:33;0.75;;;0.75;;
35496;SDS011;21609;49.298;6.844;2023-04-25T03:14:59;0.75;;;0.75;;
35496;SDS011;21609;49.298;6.844;2023-04-25T03:17:25;0.82;;;0.82;;
35496;SDS011;21609;49.298;6.844;2023-04-25T03:19:50;1.48;;;0.88;;
35496;SDS011;21609;49.298;6.844;2023-04-25T03:22:16;0.80;;;0.80;;
35496;SDS011;21609;49.298;6.844;2023-04-25T03:24:41;0.88;;;0.88;;
35496;SDS011;21609;49.298;6.844;2023-04-25T03:27:07;0.73;;;0.73;;
35496;SDS011;21609;49.298;6.844;2023-04-25T03:29:32;2.35;;;0.90;;
35496;SDS011;21609;49.298;6.844;2023-04-25T03:32:01;0.60;;;0.60;;
35496;SDS011;21609;49.298;6.844;2023-04-25T03:34:27;0.75;;;0.60;;
35496;SDS011;21609;49.298;6.844;2023-04-25T03:36:52;0.70;;;0.70;;
35496;SDS011;21609;49.298;6.844;2023-04-25T03:39:18;1.08;;;0.98;;
35496;SDS011;21609;49.298;6.844;2023-04-25T03:41:44;0.80;;;0.80;;
35496;SDS011;21609;49.298;6.844;2023-04-25T03:44:09;0.80;;;0.80;;
35496;SDS011;21609;49.298;6.844;2023-04-25T03:46:35;1.05;;;0.82;;
35496;SDS011;21609;49.298;6.844;2023-04-25T03:49:00;0.68;;;0.68;;
35496;SDS011;21609;49.298;6.844;2023-04-25T03:51:26;0.85;;;0.80;;
35496;SDS011;21609;49.298;6.844;2023-04-25T03:53:52;0.75;;;0.75;;
35496;SDS011;21609;49.298;6.844;2023-04-25T03:56:17;0.65;;;0.65;;
35496;SDS011;21609;49.298;6.844;2023-04-25T03:58:43;0.80;;;0.80;;
35496;SDS011;21609;49.298;6.844;2023-04-25T04:01:09;0.95;;;0.93;;
35496;SDS011;21609;49.298;6.844;2023-04-25T04:03:35;0.75;;;0.60;;
35496;SDS011;21609;49.298;6.844;2023-04-25T04:06:02;0.50;;;0.50;;
35496;SDS011;21609;49.298;6.844;2023-04-25T04:08:29;0.80;;;0.80;;
35496;SDS011;21609;49.298;6.844;2023-04-25T04:10:55;0.77;;;0.77;;
35496;SDS011;21609;49.298;6.844;2023-04-25T04:13:21;0.75;;;0.75;;
35496;SDS011;21609;49.298;6.844;2023-04-25T04:15:47;0.88;;;0.88;;
35496;SDS011;21609;49.298;6.844;2023-04-25T04:18:13;0.63;;;0.60;;
35496;SDS011;21609;49.298;6.844;2023-04-25T04:20:38;0.98;;;0.70;;
35496;SDS011;21609;49.298;6.844;2023-04-25T04:23:04;0.60;;;0.60;;
35496;SDS011;21609;49.298;6.844;2023-04-25T04:25:30;0.90;;;0.80;;
35496;SDS011;21609;49.298;6.844;2023-04-25T04:27:56;0.70;;;0.70;;
35496;SDS011;21609;49.298;6.844;2023-04-25T04:30:22;0.80;;;0.80;;
35496;SDS011;21609;49.298;6.844;2023-04-25T04:32:54;0.75;;;0.75;;
35496;SDS011;21609;49.298;6.844;2023-04-25T04:35:23;0.80;;;0.80;;
35496;SDS011;21609;49.298;6.844;2023-04-25T04:37:49;0.75;;;0.75;;
35496;SDS011;21609;49.298;6.844;2023-04-25T04:40:15;0.73;;;0.73;;
35496;SDS011;21609;49.298;6.844;2023-04-25T04:42:42;0.80;;;0.80;;
35496;SDS011;21609;49.298;6.844;2023-04-25T04:45:10;0.65;;;0.65;;
35496;SDS011;21609;49.298;6.844;2023-04-25T04:47:37;0.63;;;0.63;;
35496;SDS011;21609;49.298;6.844;2023-04-25T04:50:04;0.80;;;0.77;;
35496;SDS011;21609;49.298;6.844;2023-04-25T04:52:33;0.65;;;0.65;;
35496;SDS011;21609;49.298;6.844;2023-04-25T04:54:59;0.60;;;0.60;;
35496;SDS011;21609;49.298;6.844;2023-04-25T04:57:25;0.63;;;0.63;;
35496;SDS011;21609;49.298;6.844;2023-04-25T04:59:51;0.77;;;0.77;;
35496;SDS011;21609;49.298;6.844;2023-04-25T05:02:17;0.80;;;0.80;;
35496;SDS011;21609;49.298;6.844;2023-04-25T05:04:42;0.73;;;0.73;;
35496;SDS011;21609;49.298;6.844;2023-04-25T05:07:08;0.60;;;0.60;;
35496;SDS011;21609;49.298;6.844;2023-04-25T05:09:33;0.82;;;0.82;;
35496;SDS011;21609;49.298;6.844;2023-04-25T05:11:59;0.80;;;0.80;;
35496;SDS011;21609;49.298;6.844;2023-04-25T05:14:26;0.70;;;0.70;;
35496;SDS011;21609;49.298;6.844;2023-04-25T05:16:51;0.90;;;0.65;;
35496;SDS011;21609;49.298;6.844;2023-04-25T05:19:17;1.02;;;0.90;;
35496;SDS011;21609;49.298;6.844;2023-04-25T05:21:43;1.15;;;0.90;;
35496;SDS011;21609;49.298;6.844;2023-04-25T05:24:08;3.10;;;1.40;;
35496;SDS011;21609;49.298;6.844;2023-04-25T05:26:34;2.53;;;1.60;;
35496;SDS011;21609;49.298;6.844;2023-04-25T05:28:59;5.18;;;2.15;;
35496;SDS011;21609;49.298;6.844;2023-04-25T05:31:25;4.30;;;1.30;;
35496;SDS011;21609;49.298;6.844;2023-04-25T05:33:51;10.77;;;1.95;;
35496;SDS011;21609;49.298;6.844;2023-04-25T05:36:18;6.93;;;1.50;;
35496;SDS011;21609;49.298;6.844;2023-04-25T05:38:44;7.35;;;1.77;;
35496;SDS011;21609;49.298;6.844;2023-04-25T05:41:10;6.47;;;1.55;;
35496;SDS011;21609;49.298;6.844;2023-04-25T05:43:35;12.80;;;1.55;;
35496;SDS011;21609;49.298;6.844;2023-04-25T05:46:01;3.60;;;1.60;;
35496;SDS011;21609;49.298;6.844;2023-04-25T05:48:26;2.88;;;1.30;;
35496;SDS011;21609;49.298;6.844;2023-04-25T05:50:52;6.75;;;1.23;;
35496;SDS011;21609;49.298;6.844;2023-04-25T05:53:18;3.00;;;1.25;;
35496;SDS011;21609;49.298;6.844;2023-04-25T05:55:44;1.27;;;1.17;;
35496;SDS011;21609;49.298;6.844;2023-04-25T05:58:10;6.57;;;1.30;;
35496;SDS011;21609;49.298;6.844;2023-04-25T06:00:35;1.80;;;1.13;;
35496;SDS011;21609;49.298;6.844;2023-04-25T06:03:01;9.52;;;1.70;;
35496;SDS011;21609;49.298;6.844;2023-04-25T06:05:27;8.27;;;1.10;;
35496;SDS011;21609;49.298;6.844;2023-04-25T06:07:52;2.63;;;1.00;;
35496;SDS011;21609;49.298;6.844;2023-04-25T06:10:18;1.25;;;1.15;;
35496;SDS011;21609;49.298;6.844;2023-04-25T06:12:44;1.85;;;1.10;;
35496;SDS011;21609;49.298;6.844;2023-04-25T06:15:09;3.65;;;1.20;;
35496;SDS011;21609;49.298;6.844;2023-04-25T06:17:35;0.98;;;0.75;;
35496;SDS011;21609;49.298;6.844;2023-04-25T06:20:01;1.38;;;1.27;;
35496;SDS011;21609;49.298;6.844;2023-04-25T06:22:28;4.20;;;1.30;;
35496;SDS011;21609;49.298;6.844;2023-04-25T06:24:54;2.58;;;0.93;;
35496;SDS011;21609;49.298;6.844;2023-04-25T06:27:22;1.58;;;1.25;;
35496;SDS011;21609;49.298;6.844;2023-04-25T06:29:47;2.38;;;1.33;;
35496;SDS011;21609;49.298;6.844;2023-04-25T06:32:13;2.05;;;0.80;;
35496;SDS011;21609;49.298;6.844;2023-04-25T06:34:39;4.10;;;0.95;;
35496;SDS011;21609;49.298;6.844;2023-04-25T06:37:04;3.38;;;1.17;;
35496;SDS011;21609;49.298;6.844;2023-04-25T06:39:30;1.42;;;0.80;;
35496;SDS011;21609;49.298;6.844;2023-04-25T06:41:55;1.50;;;1.23;;
35496;SDS011;21609;49.298;6.844;2023-04-25T06:44:21;3.72;;;1.38;;
35496;SDS011;21609;49.298;6.844;2023-04-25T06:46:48;4.05;;;1.15;;
35496;SDS011;21609;49.298;6.844;2023-04-25T06:49:14;1.25;;;1.10;;
35496;SDS011;21609;49.298;6.844;2023-04-25T06:51:40;1.90;;;1.10;;
35496;SDS011;21609;49.298;6.844;2023-04-25T06:54:06;1.17;;;1.08;;
35496;SDS011;21609;49.298;6.844;2023-04-25T06:56:31;5.57;;;1.67;;
35496;SDS011;21609;49.298;6.844;2023-04-25T06:58:57;1.30;;;1.20;;
35496;SDS011;21609;49.298;6.844;2023-04-25T07:01:23;1.73;;;1.10;;
35496;SDS011;21609;49.298;6.844;2023-04-25T07:03:49;2.35;;;1.40;;
35496;SDS011;21609;49.298;6.844;2023-04-25T07:06:14;2.00;;;1.08;;
35496;SDS011;21609;49.298;6.844;2023-04-25T07:08:40;2.70;;;1.17;;
35496;SDS011;21609;49.298;6.844;2023-04-25T07:11:05;1.83;;;1.30;;
35496;SDS011;21609;49.298;6.844;2023-04-25T07:13:31;2.60;;;1.58;;
35496;SDS011;21609;49.298;6.844;2023-04-25T07:15:56;3.80;;;1.30;;
35496;SDS011;21609;49.298;6.844;2023-04-25T07:18:23;1.27;;;1.10;;
35496;SDS011;21609;49.298;6.844;2023-04-25T07:20:49;1.55;;;1.42;;
35496;SDS011;21609;49.298;6.844;2023-04-25T07:23:14;2.05;;;1.20;;
35496;SDS011;21609;49.298;6.844;2023-04-25T07:25:40;5.78;;;1.80;;
35496;SDS011;21609;49.298;6.844;2023-04-25T07:28:05;3.85;;;2.35;;
35496;SDS011;21609;49.298;6.844;2023-04-25T07:30:31;4.35;;;1.80;;
35496;SDS011;21609;49.298;6.844;2023-04-25T07:32:56;8.63;;;2.80;;
35496;SDS011;21609;49.298;6.844;2023-04-25T07:35:22;6.90;;;2.97;;
35496;SDS011;21609;49.298;6.844;2023-04-25T07:37:48;5.75;;;2.45;;
35496;SDS011;21609;49.298;6.844;2023-04-25T07:40:13;6.15;;;2.55;;
35496;SDS011;21609;49.298;6.844;2023-04-25T07:42:41;5.47;;;2.25;;
35496;SDS011;21609;49.298;6.844;2023-04-25T07:45:07;6.22;;;1.90;;
35496;SDS011;21609;49.298;6.844;2023-04-25T07:47:34;3.53;;;2.22;;
35496;SDS011;21609;49.298;6.844;2023-04-25T07:50:00;3.95;;;2.13;;
35496;SDS011;21609;49.298;6.844;2023-04-25T07:52:26;4.22;;;2.63;;
35496;SDS011;21609;49.298;6.844;2023-04-25T07:54:51;7.97;;;2.25;;
35496;SDS011;21609;49.298;6.844;2023-04-25T07:57:17;8.68;;;2.28;;
35496;SDS011;21609;49.298;6.844;2023-04-25T07:59:44;5.97;;;2.10;;
35496;SDS011;21609;49.298;6.844;2023-04-25T08:02:10;3.78;;;1.65;;
35496;SDS011;21609;49.298;6.844;2023-04-25T08:04:35;4.57;;;1.67;;
35496;SDS011;21609;49.298;6.844;2023-04-25T08:07:01;5.00;;;2.00;;
35496;SDS011;21609;49.298;6.844;2023-04-25T08:09:26;4.00;;;1.67;;
35496;SDS011;21609;49.298;6.844;2023-04-25T08:11:52;5.90;;;2.40;;
35496;SDS011;21609;49.298;6.844;2023-04-25T08:14:18;3.95;;;2.45;;
35496;SDS011;21609;49.298;6.844;2023-04-25T08:16:43;6.80;;;2.13;;
35496;SDS011;21609;49.298;6.844;2023-04-25T08:19:09;2.90;;;1.77;;
35496;SDS011;21609;49.298;6.844;2023-04-25T08:21:36;3.13;;;1.92;;
35496;SDS011;21609;49.298;6.844;2023-04-25T08:24:01;3.00;;;2.00;;
35496;SDS011;21609;49.298;6.844;2023-04-25T08:26:28;2.90;;;1.75;;
35496;SDS011;21609;49.298;6.844;2023-04-25T08:28:53;5.63;;;2.10;;
35496;SDS011;21609;49.298;6.844;2023-04-25T08:31:19;6.65;;;1.70;;
35496;SDS011;21609;49.298;6.844;2023-04-25T08:33:45;2.67;;;1.63;;
35496;SDS011;21609;49.298;6.844;2023-04-25T08:36:11;2.72;;;2.00;;
35496;SDS011;21609;49.298;6.844;2023-04-25T08:38:37;4.55;;;2.33;;
35496;SDS011;21609;49.298;6.844;2023-04-25T08:41:02;1.95;;;1.50;;
35496;SDS011;21609;49.298;6.844;2023-04-25T08:43:30;5.43;;;1.77;;
35496;SDS011;21609;49.298;6.844;2023-04-25T08:45:59;1.92;;;1.52;;
35496;SDS011;21609;49.298;6.844;2023-04-25T08:48:26;3.25;;;1.90;;
35496;SDS011;21609;49.298;6.844;2023-04-25T08:50:56;4.65;;;1.40;;
35496;SDS011;21609;49.298;6.844;2023-04-25T08:53:22;5.72;;;2.00;;
35496;SDS011;21609;49.298;6.844;2023-04-25T08:55:54;3.53;;;1.70;;
35496;SDS011;21609;49.298;6.844;2023-04-25T08:58:22;3.72;;;2.00;;
35496;SDS011;21609;49.298;6.844;2023-04-25T09:00:49;5.22;;;2.03;;
35496;SDS011;21609;49.298;6.844;2023-04-25T09:03:16;6.43;;;1.88;;
35496;SDS011;21609;49.298;6.844;2023-04-25T09:05:42;2.35;;;1.80;;
35496;SDS011;21609;49.298;6.844;2023-04-25T09:08:08;6.18;;;2.25;;
35496;SDS011;21609;49.298;6.844;2023-04-25T09:10:34;4.32;;;2.35;;
35496;SDS011;21609;49.298;6.844;2023-04-25T09:13:03;14.23;;;2.50;;
35496;SDS011;21609;49.298;6.844;2023-04-25T09:17:56;7.05;;;3.40;;
35496;SDS011;21609;49.298;6.844;2023-04-25T09:20:23;6.25;;;2.58;;
35496;SDS011;21609;49.298;6.844;2023-04-25T09:22:49;6.90;;;3.08;;
35496;SDS011;21609;49.298;6.844;2023-04-25T09:25:27;8.35;;;2.50;;
35496;SDS011;21609;49.298;6.844;2023-04-25T09:28:05;3.22;;;1.92;;
35496;SDS011;21609;49.298;6.844;2023-04-25T09:30:33;6.22;;;2.55;;
35496;SDS011;21609;49.298;6.844;2023-04-25T09:33:11;7.40;;;2.63;;
35496;SDS011;21609;49.298;6.844;2023-04-25T09:35:38;10.18;;;2.92;;
35496;SDS011;21609;49.298;6.844;2023-04-25T09:38:09;7.80;;;2.42;;
35496;SDS011;21609;49.298;6.844;2023-04-25T09:40:39;3.90;;;2.10;;
35496;SDS011;21609;49.298;6.844;2023-04-25T09:43:08;4.40;;;2.13;;
35496;SDS011;21609;49.298;6.844;2023-04-25T09:45:47;3.60;;;1.80;;
35496;SDS011;21609;49.298;6.844;2023-04-25T09:48:20;6.07;;;1.92;;
35496;SDS011;21609;49.298;6.844;2023-04-25T09:53:35;5.10;;;1.75;;
35496;SDS011;21609;49.298;6.844;2023-04-25T09:56:06;4.43;;;1.70;;
35496;SDS011;21609;49.298;6.844;2023-04-25T09:58:33;7.50;;;2.40;;
35496;SDS011;21609;49.298;6.844;2023-04-25T10:01:00;5.03;;;2.03;;
35496;SDS011;21609;49.298;6.844;2023-04-25T10:03:29;4.72;;;1.83;;
35496;SDS011;21609;49.298;6.844;2023-04-25T10:05:57;4.63;;;1.73;;
35496;SDS011;21609;49.298;6.844;2023-04-25T10:08:25;5.90;;;2.10;;
35496;SDS011;21609;49.298;6.844;2023-04-25T10:10:57;6.47;;;2.35;;
35496;SDS011;21609;49.298;6.844;2023-04-25T10:13:25;5.85;;;1.58;;
35496;SDS011;21609;49.298;6.844;2023-04-25T10:15:52;4.25;;;1.80;;
35496;SDS011;21609;49.298;6.844;2023-04-25T10:18:18;5.22;;;1.88;;
35496;SDS011;21609;49.298;6.844;2023-04-25T10:20:44;5.25;;;1.73;;
35496;SDS011;21609;49.298;6.844;2023-04-25T10:23:13;4.05;;;2.03;;
35496;SDS011;21609;49.298;6.844;2023-04-25T10:25:40;5.05;;;1.52;;
35496;SDS011;21609;49.298;6.844;2023-04-25T10:28:07;2.78;;;1.83;;
35496;SDS011;21609;49.298;6.844;2023-04-25T10:30:32;3.45;;;2.08;;
35496;SDS011;21609;49.298;6.844;2023-04-25T10:32:58;6.88;;;4.45;;
35496;SDS011;21609;49.298;6.844;2023-04-25T10:35:25;6.28;;;3.33;;
35496;SDS011;21609;49.298;6.844;2023-04-25T10:40:33;5.93;;;2.90;;
35496;SDS011;21609;49.298;6.844;2023-04-25T10:43:43;5.97;;;2.63;;
35496;SDS011;21609;49.298;6.844;2023-04-25T10:46:01;3.97;;;2.72;;
35496;SDS011;21609;49.298;6.844;2023-04-25T10:48:28;3.03;;;2.42;;
35496;SDS011;21609;49.298;6.844;2023-04-25T10:51:07;3.67;;;2.67;;
35496;SDS011;21609;49.298;6.844;2023-04-25T10:53:34;3.20;;;2.85;;
35496;SDS011;21609;49.298;6.844;2023-04-25T10:55:59;5.10;;;3.80;;
35496;SDS011;21609;49.298;6.844;2023-04-25T10:58:25;8.55;;;6.15;;
35496;SDS011;21609;49.298;6.844;2023-04-25T11:00:52;8.75;;;6.30;;
35496;SDS011;21609;49.298;6.844;2023-04-25T11:03:17;7.00;;;5.28;;
35496;SDS011;21609;49.298;6.844;2023-04-25T11:05:46;7.07;;;4.75;;
35496;SDS011;21609;49.298;6.844;2023-04-25T11:08:14;5.20;;;4.28;;
35496;SDS011;21609;49.298;6.844;2023-04-25T11:10:49;7.93;;;4.60;;
35496;SDS011;21609;49.298;6.844;2023-04-25T11:13:15;8.07;;;4.60;;
35496;SDS011;21609;49.298;6.844;2023-04-25T11:15:41;5.20;;;3.83;;
35496;SDS011;21609;49.298;6.844;2023-04-25T11:18:07;5.43;;;3.90;;
35496;SDS011;21609;49.298;6.844;2023-04-25T11:20:32;5.05;;;3.85;;
35496;SDS011;21609;49.298;6.844;2023-04-25T11:22:58;6.45;;;4.43;;
35496;SDS011;21609;49.298;6.844;2023-04-25T11:25:25;7.68;;;4.35;;
35496;SDS011;21609;49.298;6.844;2023-04-25T11:27:51;7.40;;;4.68;;
35496;SDS011;21609;49.298;6.844;2023-04-25T11:30:22;4.65;;;3.83;;
35496;SDS011;21609;49.298;6.844;2023-04-25T11:32:48;5.75;;;4.20;;
35496;SDS011;21609;49.298;6.844;2023-04-25T11:35:14;4.57;;;3.78;;
35496;SDS011;21609;49.298;6.844;2023-04-25T11:37:41;6.63;;;3.90;;
35496;SDS011;21609;49.298;6.844;2023-04-25T11:40:08;4.15;;;3.55;;
35496;SDS011;21609;49.298;6.844;2023-04-25T11:42:38;7.07;;;3.28;;
35496;SDS011;21609;49.298;6.844;2023-04-25T11:45:05;4.30;;;3.47;;
35496;SDS011;21609;49.298;6.844;2023-04-25T11:47:31;5.40;;;3.95;;
35496;SDS011;21609;49.298;6.844;2023-04-25T11:50:01;3.38;;;3.00;;
35496;SDS011;21609;49.298;6.844;2023-04-25T11:52:35;4.65;;;3.42;;
35496;SDS011;21609;49.298;6.844;2023-04-25T11:55:06;3.97;;;3.22;;
35496;SDS011;21609;49.298;6.844;2023-04-25T11:57:32;3.78;;;2.88;;
35496;SDS011;21609;49.298;6.844;2023-04-25T12:00:31;4.28;;;3.10;;
35496;SDS011;21609;49.298;6.844;2023-04-25T12:02:51;3.45;;;3.03;;
35496;SDS011;21609;49.298;6.844;2023-04-25T12:05:18;6.72;;;3.50;;
35496;SDS011;21609;49.298;6.844;2023-04-25T12:07:45;3.20;;;2.85;;
35496;SDS011;21609;49.298;6.844;2023-04-25T12:10:12;3.25;;;2.95;;
35496;SDS011;21609;49.298;6.844;2023-04-25T12:12:42;4.35;;;3.15;;
35496;SDS011;21609;49.298;6.844;2023-04-25T12:20:15;3.30;;;2.70;;
35496;SDS011;21609;49.298;6.844;2023-04-25T12:22:43;3.40;;;3.10;;
35496;SDS011;21609;49.298;6.844;2023-04-25T12:25:11;5.18;;;3.15;;
35496;SDS011;21609;49.298;6.844;2023-04-25T12:28:08;3.45;;;3.08;;
35496;SDS011;21609;49.298;6.844;2023-04-25T12:33:29;6.47;;;3.17;;
35496;SDS011;21609;49.298;6.844;2023-04-25T12:35:56;4.05;;;2.72;;
35496;SDS011;21609;49.298;6.844;2023-04-25T12:38:26;3.17;;;2.58;;
35496;SDS011;21609;49.298;6.844;2023-04-25T12:40:55;5.18;;;3.08;;
35496;SDS011;21609;49.298;6.844;2023-04-25T12:43:21;2.95;;;2.10;;
35496;SDS011;21609;49.298;6.844;2023-04-25T12:45:50;2.83;;;2.30;;
35496;SDS011;21609;49.298;6.844;2023-04-25T12:48:19;4.40;;;2.65;;
35496;SDS011;21609;49.298;6.844;2023-04-25T12:50:46;2.63;;;2.42;;
35496;SDS011;21609;49.298;6.844;2023-04-25T12:53:18;4.20;;;2.70;;
35496;SDS011;21609;49.298;6.844;2023-04-25T12:55:45;2.60;;;2.40;;
35496;SDS011;21609;49.298;6.844;2023-04-25T12:58:12;3.08;;;2.67;;
35496;SDS011;21609;49.298;6.844;2023-04-25T13:00:38;2.50;;;2.28;;
35496;SDS011;21609;49.298;6.844;2023-04-25T13:03:03;4.45;;;2.47;;
35496;SDS011;21609;49.298;6.844;2023-04-25T13:05:29;4.95;;;2.83;;
35496;SDS011;21609;49.298;6.844;2023-04-25T13:07:55;2.53;;;2.28;;
35496;SDS011;21609;49.298;6.844;2023-04-25T13:10:21;2.58;;;2.13;;
35496;SDS011;21609;49.298;6.844;2023-04-25T13:12:47;2.88;;;2.63;;
35496;SDS011;21609;49.298;6.844;2023-04-25T13:15:12;5.15;;;2.60;;
35496;SDS011;21609;49.298;6.844;2023-04-25T13:17:40;4.72;;;2.20;;
35496;SDS011;21609;49.298;6.844;2023-04-25T13:20:06;3.60;;;2.42;;
35496;SDS011;21609;49.298;6.844;2023-04-25T13:22:34;3.30;;;2.92;;
35496;SDS011;21609;49.298;6.844;2023-04-25T13:25:01;3.95;;;2.35;;
35496;SDS011;21609;49.298;6.844;2023-04-25T13:27:28;4.32;;;2.70;;
35496;SDS011;21609;49.298;6.844;2023-04-25T13:29:53;3.50;;;2.42;;
35496;SDS011;21609;49.298;6.844;2023-04-25T13:32:19;4.47;;;2.60;;
35496;SDS011;21609;49.298;6.844;2023-04-25T13:34:45;3.13;;;2.38;;
35496;SDS011;21609;49.298;6.844;2023-04-25T13:37:10;3.22;;;2.45;;
35496;SDS011;21609;49.298;6.844;2023-04-25T13:39:36;4.05;;;2.75;;
35496;SDS011;21609;49.298;6.844;2023-04-25T13:42:02;2.65;;;2.22;;
35496;SDS011;21609;49.298;6.844;2023-04-25T13:44:28;5.68;;;2.80;;
35496;SDS011;21609;49.298;6.844;2023-04-25T13:46:53;3.70;;;3.00;;
35496;SDS011;21609;49.298;6.844;2023-04-25T13:49:19;5.38;;;2.67;;
35496;SDS011;21609;49.298;6.844;2023-04-25T13:51:44;5.25;;;2.63;;
35496;SDS011;21609;49.298;6.844;2023-04-25T13:54:10;2.75;;;2.42;;
35496;SDS011;21609;49.298;6.844;2023-04-25T13:56:36;2.03;;;1.75;;
35496;SDS011;21609;49.298;6.844;2023-04-25T13:59:01;2.65;;;2.38;;
35496;SDS011;21609;49.298;6.844;2023-04-25T14:01:27;2.85;;;2.05;;
35496;SDS011;21609;49.298;6.844;2023-04-25T14:03:55;5.20;;;2.50;;
35496;SDS011;21609;49.298;6.844;2023-04-25T14:06:20;6.55;;;2.25;;
35496;SDS011;21609;49.298;6.844;2023-04-25T14:08:49;2.63;;;2.30;;
35496;SDS011;21609;49.298;6.844;2023-04-25T14:11:15;3.88;;;2.78;;
35496;SDS011;21609;49.298;6.844;2023-04-25T14:13:42;3.03;;;2.15;;
35496;SDS011;21609;49.298;6.844;2023-04-25T14:16:08;2.90;;;2.55;;
35496;SDS011;21609;49.298;6.844;2023-04-25T14:18:34;2.50;;;2.20;;
35496;SDS011;21609;49.298;6.844;2023-04-25T14:21:00;3.38;;;2.30;;
35496;SDS011;21609;49.298;6.844;2023-04-25T14:23:26;3.17;;;2.50;;
35496;SDS011;21609;49.298;6.844;2023-04-25T14:25:51;4.57;;;2.42;;
35496;SDS011;21609;49.298;6.844;2023-04-25T14:28:17;2.42;;;2.08;;
35496;SDS011;21609;49.298;6.844;2023-04-25T14:30:42;3.10;;;2.75;;
35496;SDS011;21609;49.298;6.844;2023-04-25T14:33:08;3.25;;;2.20;;
35496;SDS011;21609;49.298;6.844;2023-04-25T14:35:34;2.95;;;2.20;;
35496;SDS011;21609;49.298;6.844;2023-04-25T14:38:00;3.85;;;2.35;;
35496;SDS011;21609;49.298;6.844;2023-04-25T14:40:26;5.50;;;2.38;;
35496;SDS011;21609;49.298;6.844;2023-04-25T14:42:51;2.30;;;2.10;;
35496;SDS011;21609;49.298;6.844;2023-04-25T14:45:17;2.38;;;2.17;;
35496;SDS011;21609;49.298;6.844;2023-04-25T14:47:43;3.10;;;2.80;;
35496;SDS011;21609;49.298;6.844;2023-04-25T14:50:08;2.30;;;2.03;;
35496;SDS011;21609;49.298;6.844;2023-04-25T14:52:34;5.05;;;2.78;;
35496;SDS011;21609;49.298;6.844;2023-04-25T14:55:01;3.78;;;2.38;;
35496;SDS011;21609;49.298;6.844;2023-04-25T14:57:30;2.65;;;1.80;;
35496;SDS011;21609;49.298;6.844;2023-04-25T14:59:57;4.25;;;2.35;;
35496;SDS011;21609;49.298;6.844;2023-04-25T15:02:26;4.32;;;2.65;;